Time;durP1;ratioP1;P1;durP2;ratioP2;P2;SDS_P1;SDS_P2;PMS_P1;PMS_P2;Temp;Humidity;BMP_temperature;BMP_pressure;BME280_temperature;BME280_humidity;BME280_pressure;Samples;Min_cycle;Max_cycle;Signal;HPM_P1;HPM_P2
2021/07/28 00:02:00;;;;;;;9.13;8.23;;;19.20;99.90;;;;;;5064124;28;20272;-78
2021/07/28 00:04:28;;;;;;;9.43;8.40;;;19.20;99.90;;;;;;5069156;28;20738;-78
2021/07/28 00:06:57;;;;;;;9.83;8.93;;;19.20;99.90;;;;;;5050460;28;20775;-78
2021/07/28 00:09:25;;;;;;;9.33;8.47;;;19.20;99.90;;;;;;5048594;28;20321;-78
2021/07/28 00:11:53;;;;;;;11.23;8.70;;;19.10;99.90;;;;;;5042526;28;20238;-78
2021/07/28 00:14:21;;;;;;;9.27;8.37;;;19.20;99.90;;;;;;5049003;28;20260;-77
2021/07/28 00:16:49;;;;;;;10.43;8.40;;;19.20;99.90;;;;;;5047035;28;20261;-78
2021/07/28 00:19:20;;;;;;;9.87;8.87;;;19.20;99.90;;;;;;5048924;28;20234;-79
2021/07/28 00:24:34;;;;;;;9.57;8.57;;;19.10;99.90;;;;;;5042135;28;20320;-78
2021/07/28 00:27:04;;;;;;;11.40;10.23;;;19.10;99.90;;;;;;5064373;28;20597;-78
2021/07/28 00:29:32;;;;;;;9.07;8.27;;;19.10;99.90;;;;;;5068141;28;20665;-78
2021/07/28 00:32:01;;;;;;;10.60;9.07;;;19.10;99.90;;;;;;5049001;28;20724;-79
2021/07/28 00:34:30;;;;;;;11.13;10.03;;;19.10;99.90;;;;;;5047904;28;20257;-78
2021/07/28 00:36:59;;;;;;;10.00;9.10;;;19.10;99.90;;;;;;5047138;28;20329;-78
2021/07/28 00:39:27;;;;;;;11.27;9.33;;;19.10;99.90;;;;;;5048364;28;20242;-78
2021/07/28 00:41:55;;;;;;;11.10;10.00;;;19.10;99.90;;;;;;5041911;28;20229;-78
2021/07/28 00:44:23;;;;;;;10.37;9.37;;;19.10;99.90;;;;;;5048174;28;20313;-78
2021/07/28 00:46:51;;;;;;;11.37;10.33;;;19.20;99.90;;;;;;5047631;28;20758;-79
2021/07/28 00:49:20;;;;;;;10.67;9.57;;;19.10;99.90;;;;;;5048530;28;20710;-78
2021/07/28 00:51:49;;;;;;;10.60;9.70;;;19.10;99.90;;;;;;5047754;28;20241;-78
2021/07/28 00:54:17;;;;;;;10.67;9.67;;;19.20;99.90;;;;;;5040071;28;20235;-78
2021/07/28 00:56:46;;;;;;;11.30;10.20;;;19.20;99.90;;;;;;5046515;28;20231;-78
2021/07/28 00:59:14;;;;;;;11.53;10.43;;;19.10;99.90;;;;;;5047677;28;20238;-77
2021/07/28 01:01:48;;;;;;;11.70;10.50;;;19.10;99.90;;;;;;5041785;28;20245;-79
2021/07/28 01:04:16;;;;;;;10.80;9.70;;;19.10;99.90;;;;;;5038144;28;20233;-78
2021/07/28 01:06:45;;;;;;;11.70;10.60;;;19.10;99.90;;;;;;5046237;28;20776;-79
2021/07/28 01:09:14;;;;;;;12.73;11.53;;;19.10;99.90;;;;;;5048127;28;20259;-77
2021/07/28 01:11:42;;;;;;;11.13;10.13;;;19.10;99.90;;;;;;5041740;28;20645;-78
2021/07/28 01:14:11;;;;;;;11.73;10.53;;;19.10;99.90;;;;;;5047754;28;20260;-78
2021/07/28 01:16:40;;;;;;;11.17;10.17;;;19.10;99.90;;;;;;5053608;28;20234;-78
2021/07/28 01:19:12;;;;;;;11.57;10.47;;;19.10;99.90;;;;;;5048061;28;20239;-78
2021/07/28 01:21:43;;;;;;;12.40;11.30;;;19.00;99.90;;;;;;5045514;28;20253;-78
2021/07/28 01:24:15;;;;;;;13.43;10.97;;;19.10;99.90;;;;;;5047197;28;20242;-78
2021/07/28 01:26:44;;;;;;;11.37;10.33;;;19.10;99.90;;;;;;5041410;28;20300;-79
2021/07/28 01:29:13;;;;;;;11.97;10.87;;;19.10;99.90;;;;;;5037580;28;20254;-80
2021/07/28 01:31:43;;;;;;;12.23;10.93;;;19.10;99.90;;;;;;5047704;28;20416;-79
2021/07/28 01:34:12;;;;;;;11.87;10.67;;;19.00;99.90;;;;;;5047724;28;20649;-79
2021/07/28 01:36:41;;;;;;;11.50;10.40;;;19.10;99.90;;;;;;5056502;28;20598;-77
2021/07/28 01:39:09;;;;;;;10.73;9.73;;;19.10;99.90;;;;;;5047191;28;20242;-79
2021/07/28 01:41:39;;;;;;;11.17;10.17;;;19.00;99.90;;;;;;5041851;28;20235;-78
2021/07/28 01:44:07;;;;;;;11.37;10.27;;;19.00;99.90;;;;;;5037712;28;20233;-78
2021/07/28 01:46:35;;;;;;;11.57;10.47;;;19.00;99.90;;;;;;5039910;28;20761;-79
2021/07/28 01:49:03;;;;;;;12.33;11.23;;;19.00;99.90;;;;;;5046934;28;20585;-78
2021/07/28 01:51:31;;;;;;;12.47;11.37;;;18.90;99.90;;;;;;5044052;28;20243;-78
2021/07/28 01:54:00;;;;;;;12.07;10.87;;;18.90;99.90;;;;;;5045897;28;20599;-77
2021/07/28 01:56:41;;;;;;;13.20;11.90;;;18.80;99.90;;;;;;5047182;28;20233;-77
2021/07/28 01:59:11;;;;;;;11.30;10.30;;;18.80;99.90;;;;;;5046025;28;20288;-79
2021/07/28 02:01:39;;;;;;;12.53;11.33;;;18.80;99.90;;;;;;5043151;28;20242;-78
2021/07/28 02:04:08;;;;;;;11.90;10.80;;;18.80;99.90;;;;;;5047457;28;20237;-77
2021/07/28 02:06:36;;;;;;;11.97;10.80;;;18.80;99.90;;;;;;5042389;28;20371;-77
2021/07/28 02:09:06;;;;;;;12.73;11.50;;;18.80;99.90;;;;;;5045431;28;20288;-78
2021/07/28 02:11:34;;;;;;;12.40;11.00;;;18.70;99.90;;;;;;5041139;28;20674;-78
2021/07/28 02:14:02;;;;;;;12.27;10.97;;;18.70;99.90;;;;;;5046872;28;20481;-79
2021/07/28 02:16:32;;;;;;;13.13;11.83;;;18.70;99.90;;;;;;5044974;28;20249;-78
2021/07/28 02:19:00;;;;;;;12.77;11.43;;;18.70;99.90;;;;;;5045346;28;20242;-78
2021/07/28 02:25:40;;;;;;;11.77;10.57;;;18.60;99.90;;;;;;5026570;28;20277;-79
2021/07/28 02:28:08;;;;;;;12.97;11.03;;;18.60;99.90;;;;;;5062961;28;20650;-78
2021/07/28 02:30:36;;;;;;;13.27;10.80;;;18.60;99.90;;;;;;5046583;28;20237;-78
2021/07/28 02:33:10;;;;;;;12.60;11.33;;;18.50;99.90;;;;;;5046532;28;20709;-77
2021/07/28 02:35:39;;;;;;;12.00;10.90;;;18.50;99.90;;;;;;5042899;28;20230;-78
2021/07/28 02:38:07;;;;;;;12.30;11.17;;;18.50;99.90;;;;;;5045942;28;20689;-77
2021/07/28 02:40:36;;;;;;;12.67;11.57;;;18.60;99.90;;;;;;5043069;28;20240;-77
2021/07/28 02:43:04;;;;;;;12.13;10.93;;;18.50;99.90;;;;;;5044827;28;20287;-79
2021/07/28 02:45:33;;;;;;;12.37;11.23;;;18.50;99.90;;;;;;5046376;28;20714;-78
2021/07/28 02:48:04;;;;;;;12.73;11.53;;;18.50;99.90;;;;;;5049709;28;20244;-79
2021/07/28 02:50:34;;;;;;;16.50;12.40;;;18.50;99.90;;;;;;5046705;28;20238;-78
2021/07/28 02:53:02;;;;;;;13.57;11.90;;;18.40;99.90;;;;;;5048070;28;20230;-78
2021/07/28 02:55:30;;;;;;;13.03;11.83;;;18.40;99.90;;;;;;5050419;28;20246;-78
2021/07/28 02:57:59;;;;;;;13.23;11.93;;;18.40;99.90;;;;;;5050307;28;20237;-78
2021/07/28 03:00:27;;;;;;;13.50;12.23;;;18.40;99.90;;;;;;5042401;28;20241;-78
2021/07/28 03:02:55;;;;;;;13.60;12.30;;;18.40;99.90;;;;;;5046949;28;20342;-78
2021/07/28 03:05:24;;;;;;;13.57;12.17;;;18.30;99.90;;;;;;5046541;28;20241;-78
2021/07/28 03:07:54;;;;;;;13.27;11.80;;;18.30;99.90;;;;;;5045713;28;20696;-78
2021/07/28 03:10:22;;;;;;;13.00;11.73;;;18.30;99.90;;;;;;5046779;28;20225;-78
2021/07/28 03:12:51;;;;;;;12.67;11.37;;;18.30;99.90;;;;;;5044861;28;20256;-79
2021/07/28 03:15:19;;;;;;;13.37;11.50;;;18.30;99.90;;;;;;5028858;28;20788;-78
2021/07/28 03:17:48;;;;;;;13.13;11.83;;;18.30;99.90;;;;;;5044784;28;20237;-78
2021/07/28 03:20:17;;;;;;;13.77;12.47;;;18.30;99.90;;;;;;5044872;28;20627;-79
2021/07/28 03:22:45;;;;;;;12.17;10.87;;;18.30;99.90;;;;;;5047845;28;20916;-79
2021/07/28 03:25:15;;;;;;;14.67;11.90;;;18.30;99.90;;;;;;5048263;28;20298;-79
2021/07/28 03:27:43;;;;;;;12.90;11.43;;;18.20;99.90;;;;;;5048854;28;20761;-78
2021/07/28 03:30:12;;;;;;;12.87;11.57;;;18.20;99.90;;;;;;5046301;28;20245;-78
2021/07/28 03:32:40;;;;;;;13.20;12.00;;;18.20;99.90;;;;;;5048577;28;20585;-78
2021/07/28 03:35:09;;;;;;;13.80;12.43;;;18.20;99.90;;;;;;5048905;28;20283;-79
2021/07/28 03:37:37;;;;;;;14.13;12.73;;;18.20;99.90;;;;;;5034405;28;20329;-78
2021/07/28 03:40:06;;;;;;;13.87;12.40;;;18.20;99.90;;;;;;5048052;28;20236;-78
2021/07/28 03:42:36;;;;;;;13.27;11.97;;;18.20;99.90;;;;;;5042387;28;20322;-77
2021/07/28 03:45:05;;;;;;;13.63;12.23;;;18.10;99.90;;;;;;5048192;28;20235;-79
2021/07/28 03:47:33;;;;;;;13.67;12.37;;;18.10;99.90;;;;;;5047663;28;20258;-78
2021/07/28 03:50:06;;;;;;;13.00;11.70;;;18.10;99.90;;;;;;5046546;28;20253;-78
2021/07/28 03:52:35;;;;;;;13.00;11.80;;;18.10;99.90;;;;;;5067915;28;20247;-77
2021/07/28 03:55:03;;;;;;;14.53;12.60;;;18.10;99.90;;;;;;5068199;28;20236;-79
2021/07/28 03:57:31;;;;;;;13.37;11.90;;;18.10;99.90;;;;;;5047433;28;20308;-78
2021/07/28 04:00:00;;;;;;;13.57;12.20;;;18.00;99.90;;;;;;5044306;28;20240;-78
2021/07/28 04:02:31;;;;;;;13.13;11.73;;;18.00;99.90;;;;;;5041239;28;20229;-79
2021/07/28 04:05:01;;;;;;;14.73;13.17;;;18.00;99.90;;;;;;5048182;28;20257;-78
2021/07/28 04:07:29;;;;;;;13.13;11.93;;;18.00;99.90;;;;;;5041608;28;20277;-77
2021/07/28 04:09:58;;;;;;;13.50;12.20;;;18.00;99.90;;;;;;5047983;28;20654;-78
2021/07/28 04:12:26;;;;;;;13.60;12.23;;;18.00;99.90;;;;;;5041414;28;20275;-78
2021/07/28 04:14:54;;;;;;;13.43;12.03;;;17.90;99.90;;;;;;5047761;28;20290;-78
2021/07/28 04:17:25;;;;;;;12.90;11.70;;;18.00;99.90;;;;;;5052670;28;20241;-78
2021/07/28 04:19:53;;;;;;;12.20;11.00;;;18.00;99.90;;;;;;5046778;28;20312;-78
2021/07/28 04:22:22;;;;;;;11.93;10.83;;;18.00;99.90;;;;;;5042633;28;20452;-78
2021/07/28 04:24:50;;;;;;;12.90;11.47;;;18.10;99.90;;;;;;5058983;28;20656;-79
2021/07/28 04:27:18;;;;;;;13.60;11.40;;;18.10;99.90;;;;;;5053204;28;20785;-79
2021/07/28 04:29:47;;;;;;;13.17;11.77;;;18.20;99.90;;;;;;5046699;28;20234;-79
2021/07/28 04:32:15;;;;;;;15.43;12.00;;;18.10;99.90;;;;;;5041237;28;20267;-78
2021/07/28 04:34:45;;;;;;;13.33;11.13;;;18.20;99.90;;;;;;5042456;28;20889;-78
2021/07/28 04:37:13;;;;;;;12.97;11.73;;;18.30;99.90;;;;;;5037511;28;20243;-78
2021/07/28 04:39:41;;;;;;;13.30;11.37;;;18.30;99.90;;;;;;5047062;28;20237;-78
2021/07/28 04:42:10;;;;;;;12.40;11.20;;;18.30;99.90;;;;;;5040531;28;20713;-79
2021/07/28 04:44:38;;;;;;;13.60;12.23;;;18.30;99.90;;;;;;5045647;28;20730;-78
2021/07/28 04:47:07;;;;;;;12.63;11.33;;;18.40;99.90;;;;;;5045876;28;20716;-78
2021/07/28 04:49:35;;;;;;;13.37;11.93;;;18.40;99.90;;;;;;5047261;28;20602;-77
2021/07/28 04:52:06;;;;;;;13.67;11.20;;;18.50;99.90;;;;;;5046552;28;20756;-79
2021/07/28 04:54:35;;;;;;;15.10;12.33;;;18.60;99.90;;;;;;5046610;28;20647;-78
2021/07/28 04:57:03;;;;;;;15.40;13.37;;;18.60;99.90;;;;;;5040069;28;20665;-78
2021/07/28 04:59:31;;;;;;;14.60;13.13;;;18.60;99.90;;;;;;5041990;28;20229;-78
2021/07/28 05:01:59;;;;;;;16.27;14.57;;;18.60;99.90;;;;;;5035878;28;21466;-78
2021/07/28 05:04:28;;;;;;;14.87;13.33;;;18.60;99.90;;;;;;5039998;28;20703;-78
2021/07/28 05:06:56;;;;;;;16.73;14.10;;;18.70;99.90;;;;;;5039460;28;20292;-79
2021/07/28 05:09:25;;;;;;;15.90;14.20;;;18.70;99.90;;;;;;5044688;28;20241;-78
2021/07/28 05:11:54;;;;;;;19.37;13.83;;;18.70;99.90;;;;;;5038953;28;20244;-80
2021/07/28 05:14:23;;;;;;;15.93;14.27;;;18.70;99.90;;;;;;5045473;28;20242;-77
2021/07/28 05:16:52;;;;;;;17.53;14.20;;;18.80;99.90;;;;;;5039758;28;20699;-78
2021/07/28 05:19:20;;;;;;;16.90;14.70;;;18.80;99.90;;;;;;5049263;28;20288;-79
2021/07/28 05:21:48;;;;;;;15.77;14.10;;;18.80;99.90;;;;;;5036207;28;20665;-77
2021/07/28 05:24:16;;;;;;;17.10;15.13;;;18.80;99.90;;;;;;5038027;28;20237;-77
2021/07/28 05:26:46;;;;;;;16.37;13.93;;;18.80;99.90;;;;;;5044802;28;21198;-79
2021/07/28 05:29:15;;;;;;;16.27;13.80;;;18.80;99.90;;;;;;5044559;28;20246;-78
2021/07/28 05:31:43;;;;;;;15.43;13.83;;;18.90;99.90;;;;;;5043281;28;20326;-78
2021/07/28 05:34:11;;;;;;;16.17;14.10;;;19.00;99.90;;;;;;5043808;28;20555;-78
2021/07/28 05:36:39;;;;;;;15.23;13.63;;;19.10;99.90;;;;;;5037800;28;20326;-78
2021/07/28 05:39:07;;;;;;;14.93;13.33;;;19.30;99.90;;;;;;5044914;28;20242;-78
2021/07/28 05:41:36;;;;;;;14.23;12.70;;;19.70;99.90;;;;;;5054033;28;20774;-79
2021/07/28 05:44:08;;;;;;;15.73;12.63;;;20.00;99.90;;;;;;5042882;28;20632;-78
2021/07/28 05:46:37;;;;;;;14.90;12.50;;;20.20;99.90;;;;;;5044303;28;20238;-79
2021/07/28 05:49:05;;;;;;;15.77;12.67;;;20.30;99.90;;;;;;5044947;28;20230;-78
2021/07/28 05:51:33;;;;;;;12.97;11.57;;;20.30;99.90;;;;;;5037137;28;20247;-78
2021/07/28 05:54:01;;;;;;;14.40;12.90;;;20.20;99.90;;;;;;5043406;28;20317;-79
2021/07/28 05:56:29;;;;;;;14.07;12.60;;;20.20;99.90;;;;;;5038579;28;22507;-79
2021/07/28 05:58:57;;;;;;;14.10;12.70;;;20.10;99.90;;;;;;5044700;28;20601;-78
2021/07/28 06:01:29;;;;;;;15.73;12.10;;;20.10;99.90;;;;;;5043763;28;20285;-79
2021/07/28 06:03:58;;;;;;;14.00;11.97;;;20.20;99.90;;;;;;5043649;28;20239;-78
2021/07/28 06:06:26;;;;;;;13.77;11.80;;;20.20;99.90;;;;;;5035284;28;20239;-78
2021/07/28 06:08:55;;;;;;;14.53;12.43;;;20.40;99.90;;;;;;5041265;28;20246;-79
2021/07/28 06:11:23;;;;;;;14.60;13.10;;;20.60;99.90;;;;;;5054156;28;20561;-79
2021/07/28 06:13:52;;;;;;;16.37;12.93;;;20.80;99.90;;;;;;5042085;28;20269;-78
2021/07/28 06:16:20;;;;;;;16.33;13.50;;;20.80;99.90;;;;;;5038961;28;20227;-77
2021/07/28 06:18:49;;;;;;;15.43;13.27;;;20.70;99.90;;;;;;5039254;28;20242;-77
2021/07/28 06:21:18;;;;;;;14.63;12.30;;;20.60;99.90;;;;;;5037753;28;20326;-78
2021/07/28 06:23:49;;;;;;;13.23;11.83;;;20.70;99.90;;;;;;5046922;28;20540;-77
2021/07/28 06:26:17;;;;;;;13.67;12.27;;;21.00;99.90;;;;;;5044809;28;20258;-78
2021/07/28 06:28:45;;;;;;;13.70;11.10;;;21.20;99.90;;;;;;5047975;28;20261;-78
2021/07/28 06:31:13;;;;;;;14.13;11.57;;;21.40;99.90;;;;;;5056926;28;20698;-79
2021/07/28 06:33:42;;;;;;;14.77;12.77;;;21.50;99.90;;;;;;5062143;28;20725;-78
2021/07/28 06:36:11;;;;;;;15.17;12.30;;;21.40;99.90;;;;;;5041643;28;20702;-78
2021/07/28 06:38:39;;;;;;;13.60;12.30;;;21.50;99.90;;;;;;5046257;28;20289;-79
2021/07/28 06:41:07;;;;;;;16.63;12.30;;;21.50;99.90;;;;;;5046403;28;20243;-81
2021/07/28 06:43:36;;;;;;;16.83;12.43;;;21.50;99.90;;;;;;5036114;28;20304;-79
2021/07/28 06:46:04;;;;;;;13.80;12.23;;;21.30;99.90;;;;;;5040936;28;20231;-78
2021/07/28 06:48:32;;;;;;;15.27;12.57;;;21.30;99.90;;;;;;5046204;28;20232;-79
2021/07/28 06:51:00;;;;;;;12.43;11.07;;;21.40;99.90;;;;;;5040659;28;20737;-79
2021/07/28 06:53:30;;;;;;;13.17;11.67;;;21.50;99.90;;;;;;5046530;28;20238;-79
2021/07/28 06:56:01;;;;;;;12.27;10.90;;;21.60;99.90;;;;;;5062090;28;20228;-78
2021/07/28 06:58:30;;;;;;;11.63;10.23;;;21.60;99.90;;;;;;5037677;28;20830;-79
2021/07/28 07:00:59;;;;;;;12.30;10.63;;;21.80;99.90;;;;;;5047749;28;20249;-78
2021/07/28 07:03:28;;;;;;;11.30;10.20;;;22.10;99.90;;;;;;5048234;28;20250;-78
2021/07/28 07:06:16;;;;;;;12.60;11.17;;;22.20;99.90;;;;;;5039862;28;20308;-79
2021/07/28 07:08:45;;;;;;;11.30;10.20;;;22.20;99.90;;;;;;5047255;28;20242;-78
2021/07/28 07:11:14;;;;;;;10.30;9.20;;;22.20;99.90;;;;;;5053097;28;20242;-78
2021/07/28 07:13:42;;;;;;;10.70;8.80;;;22.40;99.90;;;;;;5048315;28;20241;-78
2021/07/28 07:16:10;;;;;;;13.00;10.03;;;22.50;99.90;;;;;;5048368;28;20262;-78
2021/07/28 07:18:38;;;;;;;11.63;9.60;;;22.60;99.90;;;;;;5035621;28;20228;-78
2021/07/28 07:21:06;;;;;;;12.83;9.40;;;22.40;99.90;;;;;;5036492;28;20254;-78
2021/07/28 07:23:34;;;;;;;11.33;10.23;;;22.40;99.90;;;;;;5046188;28;20655;-78
2021/07/28 07:26:04;;;;;;;10.67;9.57;;;22.40;99.90;;;;;;5047390;28;20235;-78
2021/07/28 07:28:33;;;;;;;12.73;9.20;;;22.70;99.90;;;;;;5046595;28;20259;-79
2021/07/28 07:31:02;;;;;;;9.87;8.87;;;22.80;99.90;;;;;;5044477;28;20323;-79
2021/07/28 07:33:40;;;;;;;11.90;9.20;;;22.70;99.90;;;;;;5047111;28;20247;-78
2021/07/28 07:36:10;;;;;;;10.27;8.27;;;22.60;99.90;;;;;;5048272;28;20235;-78
2021/07/28 07:38:39;;;;;;;10.57;9.27;;;22.60;99.90;;;;;;5047937;28;20686;-78
2021/07/28 07:41:09;;;;;;;10.73;8.27;;;22.60;99.90;;;;;;5041237;28;20228;-79
2021/07/28 07:43:38;;;;;;;11.63;8.27;;;22.50;99.90;;;;;;5038131;28;20242;-78
2021/07/28 07:46:06;;;;;;;10.20;9.13;;;22.50;99.90;;;;;;5046411;28;20742;-78
2021/07/28 07:48:35;;;;;;;11.07;9.37;;;22.30;99.90;;;;;;5047510;28;20250;-78
2021/07/28 07:51:03;;;;;;;14.77;9.40;;;22.10;99.90;;;;;;5060355;28;20231;-78
2021/07/28 07:53:32;;;;;;;12.03;9.77;;;21.90;99.90;;;;;;5046526;28;20658;-78
2021/07/28 07:56:02;;;;;;;10.13;9.13;;;21.60;99.90;;;;;;5045896;28;20247;-79
2021/07/28 07:58:32;;;;;;;11.27;9.80;;;21.40;99.90;;;;;;5044066;28;20775;-79
2021/07/28 08:01:07;;;;;;;9.73;8.70;;;21.70;99.90;;;;;;5042365;28;20247;-79
2021/07/28 08:03:35;;;;;;;11.03;8.97;;;22.50;99.90;;;;;;5048038;28;20235;-78
2021/07/28 08:06:04;;;;;;;10.27;8.43;;;22.70;99.90;;;;;;5047683;28;20235;-78
2021/07/28 08:08:32;;;;;;;8.33;7.40;;;22.70;99.90;;;;;;5046917;28;20240;-79
2021/07/28 08:11:00;;;;;;;11.13;8.30;;;23.00;99.90;;;;;;5041845;28;20247;-78
2021/07/28 08:13:50;;;;;;;9.09;8.01;;;23.20;99.90;;;;;;4548702;28;10001149;-80
2021/07/28 08:16:20;;;;;;;9.40;8.50;;;23.70;99.90;;;;;;2432554;28;10002075;-79
2021/07/28 08:18:49;;;;;;;10.87;8.80;;;23.90;99.90;;;;;;5046349;28;20478;-79
2021/07/28 08:21:18;;;;;;;9.67;8.67;;;23.60;99.90;;;;;;5040780;28;20227;-79
2021/07/28 08:23:47;;;;;;;9.17;7.20;;;23.80;99.90;;;;;;5046982;28;20264;-79
2021/07/28 08:26:20;;;;;;;8.40;7.60;;;23.60;99.90;;;;;;5041442;28;20646;-79
2021/07/28 08:28:49;;;;;;;9.37;8.00;;;23.20;99.90;;;;;;5046661;28;20316;-79
2021/07/28 08:31:17;;;;;;;8.13;7.33;;;23.00;99.90;;;;;;5042730;28;20301;-79
2021/07/28 08:33:45;;;;;;;8.37;7.40;;;23.00;99.90;;;;;;5044410;28;20285;-79
2021/07/28 08:36:14;;;;;;;8.23;7.43;;;23.10;99.90;;;;;;5044684;28;20236;-79
2021/07/28 08:38:42;;;;;;;8.00;7.20;;;23.40;99.90;;;;;;5042431;28;20224;-80
2021/07/28 08:41:11;;;;;;;8.03;7.23;;;23.50;99.90;;;;;;5039799;28;20237;-79
2021/07/28 08:43:40;;;;;;;7.40;6.70;;;23.90;99.90;;;;;;5035616;28;20620;-79
2021/07/28 08:46:10;;;;;;;7.60;6.90;;;24.30;99.90;;;;;;5039624;28;20323;-79
2021/07/28 08:48:39;;;;;;;7.40;6.77;;;24.90;99.90;;;;;;5046349;28;20236;-79
2021/07/28 08:51:07;;;;;;;6.93;5.93;;;25.20;99.90;;;;;;5040424;28;20239;-79
2021/07/28 08:53:35;;;;;;;10.80;6.40;;;24.80;99.90;;;;;;5047612;28;20245;-79
2021/07/28 08:56:04;;;;;;;6.17;5.47;;;24.80;99.90;;;;;;5042178;28;20266;-79
2021/07/28 08:58:32;;;;;;;7.13;6.00;;;24.60;99.90;;;;;;5054361;28;20232;-79
2021/07/28 09:01:01;;;;;;;6.73;5.90;;;24.20;99.90;;;;;;5046298;28;20236;-77
2021/07/28 09:03:31;;;;;;;7.10;6.50;;;24.00;99.90;;;;;;5047551;28;20232;-79
2021/07/28 09:06:01;;;;;;;7.43;6.00;;;24.20;99.90;;;;;;5045493;28;20236;-79
2021/07/28 09:08:30;;;;;;;7.97;5.47;;;24.60;99.90;;;;;;5046999;28;20259;-78
2021/07/28 09:11:00;;;;;;;5.77;5.20;;;24.80;99.90;;;;;;5043070;28;20251;-80
2021/07/28 09:13:34;;;;;;;7.00;4.90;;;25.10;99.90;;;;;;5040565;28;20401;-80
2021/07/28 09:16:05;;;;;;;11.10;4.97;;;25.60;99.90;;;;;;5037889;28;20315;-82
2021/07/28 09:18:37;;;;;;;11.17;5.00;;;26.10;99.90;;;;;;5046909;28;20242;-81
2021/07/28 09:21:07;;;;;;;7.77;5.07;;;26.40;99.90;;;;;;5046880;28;20594;-81
2021/07/28 09:23:40;;;;;;;5.17;4.53;;;26.40;99.90;;;;;;5053232;28;20348;-82
2021/07/28 09:26:34;;;;;;;6.43;4.90;;;26.60;99.90;;;;;;5040181;28;20582;-82
2021/07/28 09:29:08;;;;;;;5.10;4.60;;;26.90;99.90;;;;;;5044222;28;20238;-81
2021/07/28 09:31:40;;;;;;;5.50;4.73;;;26.60;99.90;;;;;;5048884;28;20250;-79
2021/07/28 09:34:37;;;;;;;5.20;4.70;;;26.00;99.90;;;;;;5047550;28;20242;-79
2021/07/28 09:37:10;;;;;;;6.30;5.00;;;26.10;99.90;;;;;;5035850;28;20311;-79
2021/07/28 09:39:39;;;;;;;7.03;4.73;;;25.90;99.90;;;;;;5047970;28;20317;-79
2021/07/28 09:42:11;;;;;;;6.53;4.83;;;25.50;99.90;;;;;;5028987;28;20257;-80
2021/07/28 09:44:40;;;;;;;6.47;5.30;;;25.70;99.90;;;;;;5056095;28;20244;-81
2021/07/28 09:47:11;;;;;;;6.27;5.50;;;25.30;99.90;;;;;;5040903;28;20657;-79
2021/07/28 09:49:42;;;;;;;6.53;5.27;;;24.80;99.90;;;;;;5030258;28;20385;-80
2021/07/28 09:52:18;;;;;;;6.07;5.23;;;25.30;99.90;;;;;;5041333;28;20744;-81
2021/07/28 09:54:47;;;;;;;5.70;5.20;;;25.40;99.90;;;;;;5046015;28;20233;-79
2021/07/28 09:57:20;;;;;;;5.83;5.13;;;25.40;99.90;;;;;;5048457;28;20274;-83
2021/07/28 09:59:53;;;;;;;5.03;4.53;;;25.50;99.90;;;;;;5050717;28;20542;-83
2021/07/28 10:02:24;;;;;;;5.50;4.87;;;26.30;99.90;;;;;;5044532;28;20253;-83
2021/07/28 10:04:55;;;;;;;4.80;4.30;;;26.70;99.90;;;;;;5050257;28;20732;-82
2021/07/28 10:07:24;;;;;;;5.67;4.30;;;27.40;99.90;;;;;;5044317;28;20233;-82
2021/07/28 10:09:59;;;;;;;5.53;5.03;;;27.60;99.90;;;;;;5050646;28;20641;-82
2021/07/28 10:12:29;;;;;;;5.13;4.30;;;27.00;99.90;;;;;;5044584;28;20761;-83
2021/07/28 10:14:59;;;;;;;5.77;4.77;;;26.50;99.90;;;;;;5050699;28;20303;-82
2021/07/28 10:17:29;;;;;;;5.17;4.53;;;26.20;99.90;;;;;;5044989;28;20325;-82
2021/07/28 10:19:59;;;;;;;6.30;4.67;;;26.30;99.90;;;;;;5050328;28;20967;-82
2021/07/28 10:22:32;;;;;;;6.10;5.13;;;26.00;99.90;;;;;;5049987;28;20233;-82
2021/07/28 10:25:02;;;;;;;6.20;4.60;;;25.70;99.90;;;;;;5050685;28;20329;-82
2021/07/28 10:27:31;;;;;;;6.57;4.50;;;25.80;99.90;;;;;;5064220;28;20304;-82
2021/07/28 10:29:59;;;;;;;6.43;4.53;;;26.40;99.90;;;;;;5065495;28;20317;-82
2021/07/28 10:32:32;;;;;;;5.87;3.97;;;27.10;99.90;;;;;;5044041;28;20299;-78
2021/07/28 10:35:22;;;;;;;5.03;4.53;;;27.80;99.90;;;;;;5049172;28;20258;-79
2021/07/28 10:37:51;;;;;;;6.10;5.37;;;27.50;99.90;;;;;;5053609;28;20236;-78
2021/07/28 10:40:58;;;;;;;5.57;5.03;;;26.60;99.90;;;;;;5030017;28;20232;-79
2021/07/28 10:43:27;;;;;;;5.73;5.13;;;25.90;99.90;;;;;;5042444;28;20238;-79
2021/07/28 10:45:58;;;;;;;5.23;4.73;;;25.40;99.90;;;;;;5043674;28;20247;-79
2021/07/28 10:48:59;;;;;;;6.07;4.67;;;25.30;99.90;;;;;;5042181;28;20247;-79
2021/07/28 10:51:58;;;;;;;5.37;4.33;;;25.20;99.90;;;;;;5046075;28;20241;-79
2021/07/28 10:55:03;;;;;;;4.67;4.20;;;25.30;99.90;;;;;;4980101;28;20817;-79
2021/07/28 10:58:19;;;;;;;6.63;4.93;;;26.30;99.90;;;;;;5038196;28;20257;-79
2021/07/28 11:00:50;;;;;;;5.50;4.40;;;27.00;99.90;;;;;;5039823;28;20231;-80
2021/07/28 11:03:19;;;;;;;4.50;4.10;;;26.70;99.90;;;;;;5038154;28;20231;-79
2021/07/28 11:05:50;;;;;;;4.97;3.83;;;26.90;99.90;;;;;;5037886;28;20248;-80
2021/07/28 11:08:21;;;;;;;4.30;3.90;;;27.30;99.90;;;;;;5054595;28;20297;-80
2021/07/28 11:11:00;;;;;;;4.50;3.77;;;27.90;99.90;;;;;;5032485;28;20239;-79
2021/07/28 11:13:31;;;;;;;4.77;4.13;;;28.00;99.90;;;;;;5034061;28;20239;-79
2021/07/28 11:16:00;;;;;;;4.57;4.00;;;27.90;99.90;;;;;;5055821;28;20265;-80
2021/07/28 11:18:33;;;;;;;6.53;4.30;;;27.80;99.90;;;;;;5038280;28;20292;-79
2021/07/28 11:21:13;;;;;;;4.67;4.23;;;27.40;99.90;;;;;;5039866;28;20314;-80
2021/07/28 11:23:45;;;;;;;4.90;4.43;;;26.90;99.90;;;;;;5038777;28;20773;-79
2021/07/28 11:26:21;;;;;;;4.93;4.40;;;26.70;99.90;;;;;;5043030;28;20243;-79
2021/07/28 11:28:50;;;;;;;5.27;4.77;;;26.30;99.90;;;;;;5044990;28;20247;-80
2021/07/28 11:31:36;;;;;;;5.77;4.67;;;26.10;99.90;;;;;;5042540;28;20253;-80
2021/07/28 11:34:13;;;;;;;5.93;5.10;;;26.00;99.90;;;;;;5038423;28;20239;-80
2021/07/28 11:36:43;;;;;;;6.13;5.43;;;25.90;99.90;;;;;;5033283;28;20243;-81
2021/07/28 11:39:17;;;;;;;6.10;5.60;;;25.60;99.90;;;;;;5042258;28;20254;-80
2021/07/28 11:41:47;;;;;;;6.37;5.50;;;25.40;99.90;;;;;;5038018;28;20245;-80
2021/07/28 11:44:16;;;;;;;6.40;5.63;;;25.20;99.90;;;;;;5044606;28;20261;-80
2021/07/28 11:46:51;;;;;;;6.33;5.67;;;25.30;99.90;;;;;;5059389;28;20253;-79
2021/07/28 11:49:25;;;;;;;6.00;5.40;;;25.90;99.90;;;;;;5063803;28;20252;-80
2021/07/28 11:51:59;;;;;;;5.77;5.20;;;26.70;99.90;;;;;;5037644;28;20229;-80
2021/07/28 11:54:31;;;;;;;6.07;5.40;;;27.20;99.90;;;;;;5037805;28;20277;-80
2021/07/28 11:57:00;;;;;;;6.37;5.10;;;27.10;99.90;;;;;;5038801;28;20743;-80
2021/07/28 11:59:31;;;;;;;5.47;4.97;;;27.50;99.90;;;;;;5034487;28;20759;-79
2021/07/28 12:02:00;;;;;;;5.10;4.60;;;27.50;99.90;;;;;;5036843;28;20715;-80
2021/07/28 12:04:30;;;;;;;5.97;5.20;;;27.70;99.90;;;;;;5036409;28;20329;-80
2021/07/28 12:07:10;;;;;;;6.27;5.17;;;27.80;99.90;;;;;;5025305;28;20235;-79
2021/07/28 12:09:40;;;;;;;5.13;4.53;;;27.40;99.90;;;;;;5035735;28;20257;-79
2021/07/28 12:12:19;;;;;;;5.70;4.80;;;27.10;99.90;;;;;;5021321;28;20293;-81
2021/07/28 12:14:48;;;;;;;5.97;4.73;;;27.30;99.90;;;;;;5038747;28;20246;-80
2021/07/28 12:17:24;;;;;;;5.87;4.90;;;26.90;99.90;;;;;;5039678;28;20314;-78
2021/07/28 12:19:55;;;;;;;5.40;4.87;;;26.90;99.90;;;;;;5037378;28;20763;-79
2021/07/28 12:22:29;;;;;;;5.50;5.00;;;27.00;99.90;;;;;;5043599;28;20242;-80
2021/07/28 12:25:16;;;;;;;5.47;4.97;;;27.20;99.90;;;;;;5037700;28;20246;-79
2021/07/28 12:27:59;;;;;;;5.73;4.70;;;27.50;99.90;;;;;;5039073;28;20899;-79
2021/07/28 12:30:29;;;;;;;5.13;4.67;;;27.40;99.90;;;;;;5035587;28;20442;-79
2021/07/28 12:33:09;;;;;;;6.27;5.30;;;26.90;99.90;;;;;;5039434;28;20321;-79
2021/07/28 12:35:50;;;;;;;5.90;5.40;;;26.40;99.90;;;;;;5037022;28;20238;-79
2021/07/28 12:38:23;;;;;;;6.47;5.70;;;26.20;99.90;;;;;;5035165;28;20231;-80
2021/07/28 12:40:54;;;;;;;5.87;5.33;;;25.70;99.90;;;;;;5036008;28;20239;-79
2021/07/28 12:43:23;;;;;;;5.37;4.97;;;25.60;99.90;;;;;;5043239;28;20258;-80
2021/07/28 12:45:56;;;;;;;5.47;4.97;;;25.50;99.90;;;;;;5038570;28;20763;-79
2021/07/28 12:48:26;;;;;;;5.60;5.03;;;25.30;99.90;;;;;;5038784;28;20346;-80
2021/07/28 12:50:55;;;;;;;6.97;5.80;;;25.20;99.90;;;;;;5038657;28;20232;-80
2021/07/28 12:53:24;;;;;;;5.77;5.27;;;25.10;99.90;;;;;;5035742;28;20252;-80
2021/07/28 12:55:54;;;;;;;5.80;5.30;;;25.00;99.90;;;;;;5035383;28;20276;-80
2021/07/28 12:58:23;;;;;;;6.90;6.13;;;24.70;99.90;;;;;;5042269;28;20241;-79
2021/07/28 13:00:51;;;;;;;7.07;5.70;;;24.10;99.90;;;;;;5034553;28;20414;-78